»·PEaware :: N9229P KAPV-KBFL

N9229P :: KAPV-KBFL

FLIGHT INFORMATION

Flight Status: Arrived
Operator: Privately registered:
United States
More flights under this callsign
Pilot: James W. (24810)
Aircraft: PIPER PA-24 COMMANCHE
(PA24)
More flights by this aircraft type
Origin: KAPV Apple Valley
United States
Destination: KBFL Meadows
United States
More flights between these airports :: More routes between these airports
Route: HESPE PMD
File this flight plan on PilotEdge
Remarks:
Altitude:
(Current/Filed)
8,500ft
Speed:
(Current/Filed)
170kts
Departed: 15-Dec-20 07:08 PM
Arrived: 15-Dec-20 07:49 PM
Distance/Time
Traveled:
105nm/0:40
Distance/Time
To Go:
Arrived

Flight Plot

Page will automatically refresh every two minutes.

Flight plan parsing failed; only flown route is shown


Map Options




Map Legend


Flown Route
Filed Route
Departure Airport
Arrival Airport
Navaid (VOR, NDB)
Fix

Horizontal Profiles

Position Reports

Time Latitude Longitude Heading Altitude Ground
Speed
15-Dec-20 18:57 34.575951 -117.190480 89 3064ft 0kts
15-Dec-20 18:58 34.575951 -117.190480 89 3064ft 0kts
15-Dec-20 18:59 34.575951 -117.190480 89 3064ft 0kts
15-Dec-20 19:00 34.575951 -117.190480 89 3064ft 0kts
15-Dec-20 19:01 34.575951 -117.190480 89 3064ft 0kts
15-Dec-20 19:02 34.575951 -117.190480 89 3064ft 0kts
15-Dec-20 19:03 34.575934 -117.188568 89 3064ft 11kts
15-Dec-20 19:04 34.579277 -117.186828 16 3064ft 24kts
15-Dec-20 19:05 34.585107 -117.184790 15 3064ft 25kts
15-Dec-20 19:06 34.586384 -117.182985 193 3064ft 40kts
15-Dec-20 19:07 34.558470 -117.198148 230 3738ft 146kts
15-Dec-20 19:08 34.526113 -117.233493 223 4647ft 161kts
15-Dec-20 19:09 34.492436 -117.269766 223 5547ft 162kts
15-Dec-20 19:10 34.458652 -117.306071 224 6447ft 161kts
15-Dec-20 19:11 34.429204 -117.344271 271 7333ft 150kts
15-Dec-20 19:12 34.441187 -117.390512 292 8234ft 143kts
15-Dec-20 19:13 34.455187 -117.439391 292 8528ft 165kts
15-Dec-20 19:14 34.470547 -117.493422 292 8527ft 172kts
15-Dec-20 19:15 34.486226 -117.548634 292 8527ft 173kts
15-Dec-20 19:16 34.501997 -117.604229 292 8507ft 176kts
15-Dec-20 19:17 34.517873 -117.660320 291 8479ft 175kts
15-Dec-20 19:18 34.533763 -117.716558 292 8479ft 176kts
15-Dec-20 19:19 34.549678 -117.772999 290 8474ft 179kts
15-Dec-20 19:20 34.565928 -117.831043 290 8494ft 182kts
15-Dec-20 19:21 34.582279 -117.889538 290 8497ft 183kts
15-Dec-20 19:22 34.598647 -117.947971 290 8497ft 183kts
15-Dec-20 19:23 34.615040 -118.006594 290 8497ft 183kts
15-Dec-20 19:24 34.632226 -118.065217 304 8493ft 184kts
15-Dec-20 19:25 34.666848 -118.110304 315 8500ft 183kts
15-Dec-20 19:26 34.701539 -118.155618 315 8502ft 182kts
15-Dec-20 19:27 34.736123 -118.200674 314 8503ft 181kts
15-Dec-20 19:28 34.770471 -118.245443 314 8504ft 181kts
15-Dec-20 19:29 34.804766 -118.290201 314 8506ft 181kts
15-Dec-20 19:30 34.839014 -118.334956 314 8509ft 180kts
15-Dec-20 19:31 34.873353 -118.379891 314 8512ft 181kts
15-Dec-20 19:32 34.907692 -118.424884 314 8518ft 182kts
15-Dec-20 19:33 34.942160 -118.470110 314 8522ft 182kts
15-Dec-20 19:34 34.976725 -118.515501 314 8492ft 184kts
15-Dec-20 19:35 35.011307 -118.561042 314 8490ft 182kts
15-Dec-20 19:36 35.047403 -118.605346 318 8227ft 192kts
15-Dec-20 19:37 35.087057 -118.650644 317 7529ft 197kts
15-Dec-20 19:38 35.126743 -118.696899 316 6827ft 197kts
15-Dec-20 19:39 35.166114 -118.742975 316 6128ft 196kts
15-Dec-20 19:40 35.205440 -118.789059 316 5427ft 195kts
15-Dec-20 19:41 35.244432 -118.834813 316 4727ft 194kts
15-Dec-20 19:42 35.283206 -118.880381 316 4028ft 193kts
15-Dec-20 19:43 35.319865 -118.923473 316 3327ft 171kts
15-Dec-20 19:44 35.352082 -118.961387 316 2622ft 152kts
15-Dec-20 19:45 35.383548 -118.994789 315 1919ft 146kts
15-Dec-20 19:46 35.410047 -119.027412 316 1335ft 112kts
15-Dec-20 19:47 35.427944 -119.049116 317 630ft 83kts
15-Dec-20 19:48 35.438263 -119.061523 318 494ft 23kts
15-Dec-20 19:49 35.440555 -119.063028 44 501ft 0kts
15-Dec-20 19:50 35.438237 -119.059257 135 497ft 19kts
15-Dec-20 19:51 35.436063 -119.055060 44 499ft 9kts
15-Dec-20 19:52 35.436284 -119.054800 42 501ft 0kts
15-Dec-20 19:53 35.436284 -119.054800 42 501ft 0kts

Navigation Log

Ident Type
Flight plan parsing failed, navigation log unavailable